Al Kharsaah — C6VG3 — position and weather

sailwx.info

Track history (hours):
 
Tides and Currents Weather Stations Pressure Air Temp Water Temp Dewpoint Dewpoint Depression Visibility Wind Speed Wind Dir Waves Ship Positions

Al Kharsaah

Last reported at 2015-Feb-23 09:26 UTC. Time now 2015-Mar-01 11:03 UTC.
Position N 01°51' E 102°27'.

Length 315 m; draft 9.5 m.

Type: Ship (hazmat cat D). MMSI: 309333000.

Date/timePositionNaut miles runAvg speedWind from/ knotsBaromVisibWave heightAir tempDewpointWater temp
2015-Feb-23 09:26N 01°51' E 102°27'1820.9
2015-Feb-23 08:33N 01°43' E 102°43'7218.0
2015-Feb-23 04:33N 01°10' E 103°47'1615.1
2015-Feb-23 03:31N 01°16' E 104°01'9 9.8
2015-Feb-23 02:33N 01°17' E 104°11'  
2015-Feb-17 02:27N 34°51' E 139°39'1517.3
2015-Feb-17 01:33N 35°06' E 139°45'1212.1
2015-Feb-17 00:33N 35°18' E 139°44'6 6.2
2015-Feb-16 23:33N 35°23' E 139°48'3 1.8
2015-Feb-16 22:07N 35°21' E 139°49'0 0.0
2015-Feb-16 20:13N 35°21' E 139°49'0 0.0
2015-Feb-16 19:31N 35°21' E 139°49'0 0.0
2015-Feb-16 17:25N 35°21' E 139°49'0 0.0
2015-Feb-16 15:25N 35°21' E 139°49'0 0.0
2015-Feb-16 14:19N 35°21' E 139°49'0 0.0
2015-Feb-16 12:10N 35°21' E 139°49'0 0.0
2015-Feb-16 11:19N 35°21' E 139°49'0 0.0
2015-Feb-16 10:31N 35°21' E 139°49'0 0.0
2015-Feb-16 09:07N 35°21' E 139°49'0 0.0
2015-Feb-16 07:19N 35°21' E 139°49'0 0.0
2015-Feb-16 03:25N 35°21' E 139°49'0 0.0
2015-Feb-15 23:07N 35°21' E 139°49'0 0.0
2015-Feb-15 20:16N 35°21' E 139°49'0 0.0
2015-Feb-15 17:07N 35°21' E 139°49'0 0.0
2015-Feb-15 15:31N 35°21' E 139°49'0 0.0
2015-Feb-15 14:25N 35°21' E 139°49'0 0.0
2015-Feb-15 12:25N 35°21' E 139°49'0 0.0
2015-Feb-15 06:07N 35°21' E 139°49'0 0.0
2015-Feb-15 05:19N 35°21' E 139°49'0 0.0
2015-Feb-15 04:33N 35°21' E 139°49'1 0.8
2015-Feb-15 03:33N 35°21' E 139°49'3 3.5
2015-Feb-15 02:33N 35°20' E 139°45'1110.8
2015-Feb-15 01:33N 35°10' E 139°47'7 6.9
2015-Feb-15 00:34N 35°03' E 139°43'10 9.4
2015-Feb-14 23:33N 34°57' E 139°34'  
Track history (hours):
 
Tides and Currents Weather Stations Pressure Air Temp Water Temp Dewpoint Dewpoint Depression Visibility Wind Speed Wind Dir Waves Ship Positions

Al Kharsaah

Last reported at 2015-Feb-23 09:26 UTC. Time now 2015-Mar-01 11:03 UTC.
Position N 01°51' E 102°27'.

Length 315 m; draft 9.5 m.

Type: Ship (hazmat cat D). MMSI: 309333000.

Date/timePositionNaut miles runAvg speedWind from/ knotsBaromVisibWave heightAir tempDewpointWater temp
2015-Feb-23 09:26N 01°51' E 102°27'1820.9
2015-Feb-23 08:33N 01°43' E 102°43'7218.0
2015-Feb-23 04:33N 01°10' E 103°47'1615.1
2015-Feb-23 03:31N 01°16' E 104°01'9 9.8
2015-Feb-23 02:33N 01°17' E 104°11'  
2015-Feb-17 02:27N 34°51' E 139°39'1517.3
2015-Feb-17 01:33N 35°06' E 139°45'1212.1
2015-Feb-17 00:33N 35°18' E 139°44'6 6.2
2015-Feb-16 23:33N 35°23' E 139°48'3 1.8
2015-Feb-16 22:07N 35°21' E 139°49'0 0.0
2015-Feb-16 20:13N 35°21' E 139°49'0 0.0
2015-Feb-16 19:31N 35°21' E 139°49'0 0.0
2015-Feb-16 17:25N 35°21' E 139°49'0 0.0
2015-Feb-16 15:25N 35°21' E 139°49'0 0.0
2015-Feb-16 14:19N 35°21' E 139°49'0 0.0
2015-Feb-16 12:10N 35°21' E 139°49'0 0.0
2015-Feb-16 11:19N 35°21' E 139°49'0 0.0
2015-Feb-16 10:31N 35°21' E 139°49'0 0.0
2015-Feb-16 09:07N 35°21' E 139°49'0 0.0
2015-Feb-16 07:19N 35°21' E 139°49'0 0.0
2015-Feb-16 03:25N 35°21' E 139°49'0 0.0
2015-Feb-15 23:07N 35°21' E 139°49'0 0.0
2015-Feb-15 20:16N 35°21' E 139°49'0 0.0
2015-Feb-15 17:07N 35°21' E 139°49'0 0.0
2015-Feb-15 15:31N 35°21' E 139°49'0 0.0
2015-Feb-15 14:25N 35°21' E 139°49'0 0.0
2015-Feb-15 12:25N 35°21' E 139°49'0 0.0
2015-Feb-15 06:07N 35°21' E 139°49'0 0.0
2015-Feb-15 05:19N 35°21' E 139°49'0 0.0
2015-Feb-15 04:33N 35°21' E 139°49'1 0.8
2015-Feb-15 03:33N 35°21' E 139°49'3 3.5
2015-Feb-15 02:33N 35°20' E 139°45'1110.8
2015-Feb-15 01:33N 35°10' E 139°47'7 6.9
2015-Feb-15 00:34N 35°03' E 139°43'10 9.4
2015-Feb-14 23:33N 34°57' E 139°34'  

Dump ship's entire track history